Time;durP1;ratioP1;P1;durP2;ratioP2;P2;SDS_P1;SDS_P2;PMS_P1;PMS_P2;Temp;Humidity;BMP_temperature;BMP_pressure;BME280_temperature;BME280_humidity;BME280_pressure;Samples;Min_cycle;Max_cycle;Signal;HPM_P1;HPM_P2
2023/11/06 00:02:17;;;;;;;4.68;1.48;;;;;;;13.34;100.00;92265.66;5066623;28;20056;-81
2023/11/06 00:04:44;;;;;;;3.33;0.90;;;;;;;13.48;100.00;92286.66;5066896;28;20052;-80
2023/11/06 00:07:11;;;;;;;5.68;1.48;;;;;;;13.44;100.00;92274.50;5066711;28;20505;-80
2023/11/06 00:09:37;;;;;;;4.28;1.20;;;;;;;13.41;100.00;92280.13;5068574;28;20045;-80
2023/11/06 00:12:07;;;;;;;2.83;0.98;;;;;;;13.34;100.00;92275.22;5067261;28;20043;-80
2023/11/06 00:14:34;;;;;;;4.75;1.00;;;;;;;13.43;100.00;92307.25;5066405;28;20440;-80
2023/11/06 00:17:01;;;;;;;5.97;1.30;;;;;;;13.35;100.00;92299.97;5068571;28;20048;-81
2023/11/06 00:19:28;;;;;;;2.75;0.98;;;;;;;13.40;100.00;92309.53;5065708;28;20052;-80
2023/11/06 00:21:57;;;;;;;3.83;0.85;;;;;;;13.34;100.00;92301.00;5059970;28;20044;-80
2023/11/06 00:24:24;;;;;;;5.43;1.50;;;;;;;13.44;100.00;92308.03;5071582;28;20062;-80
2023/11/06 00:26:51;;;;;;;4.68;1.10;;;;;;;13.47;100.00;92321.22;5069942;28;20409;-81
2023/11/06 00:29:19;;;;;;;2.78;0.93;;;;;;;13.46;100.00;92332.59;5069988;28;20488;-81
2023/11/06 00:31:46;;;;;;;5.78;1.70;;;;;;;13.32;100.00;92310.78;5069750;28;20049;-80
2023/11/06 00:34:13;;;;;;;2.72;1.08;;;;;;;13.48;100.00;92334.91;5071529;28;20118;-80
2023/11/06 00:36:41;;;;;;;4.32;1.20;;;;;;;13.46;100.00;92332.59;5070123;28;20048;-80
2023/11/06 00:39:09;;;;;;;4.00;1.40;;;;;;;13.25;100.00;92297.34;5066752;28;20570;-80
2023/11/06 00:41:35;;;;;;;3.25;1.05;;;;;;;13.34;100.00;92339.69;5072267;28;20051;-80
2023/11/06 00:44:04;;;;;;;2.50;1.10;;;;;;;13.38;100.00;92334.81;5069651;28;20049;-80
2023/11/06 00:46:33;;;;;;;3.53;1.08;;;;;;;13.40;100.00;92346.44;5072102;28;20052;-80
2023/11/06 00:49:00;;;;;;;3.22;1.15;;;;;;;13.48;100.00;92353.75;5070505;28;20048;-80
2023/11/06 00:51:27;;;;;;;4.78;1.10;;;;;;;13.38;100.00;92333.00;5068361;28;20464;-80
2023/11/06 00:53:54;;;;;;;4.45;1.10;;;;;;;13.44;100.00;92347.50;5074323;28;20420;-80
2023/11/06 00:56:21;;;;;;;5.20;1.20;;;;;;;13.51;100.00;92354.28;5071664;28;20110;-80
2023/11/06 00:58:48;;;;;;;2.63;1.10;;;;;;;13.41;100.00;92352.38;5070728;28;20045;-80
2023/11/06 01:01:15;;;;;;;4.47;1.08;;;;;;;13.48;100.00;92364.06;5072341;28;20063;-80
2023/11/06 01:03:43;;;;;;;2.40;1.17;;;;;;;13.48;100.00;92360.72;5070054;28;20040;-80
2023/11/06 01:06:11;;;;;;;3.03;0.75;;;;;;;13.33;100.00;92344.06;5069436;28;20049;-80
2023/11/06 01:08:38;;;;;;;3.13;0.93;;;;;;;13.33;100.00;92348.47;5066243;28;20451;-81
2023/11/06 01:11:05;;;;;;;4.22;1.42;;;;;;;13.26;100.00;92351.25;5069458;28;20049;-80
2023/11/06 01:13:32;;;;;;;3.22;1.00;;;;;;;13.34;100.00;92373.22;5068557;28;20113;-80
2023/11/06 01:15:59;;;;;;;2.83;1.02;;;;;;;13.27;100.00;92375.22;5068865;28;20080;-80
2023/11/06 01:18:26;;;;;;;3.38;1.15;;;;;;;13.12;100.00;92370.72;5071251;28;20579;-80
2023/11/06 01:20:54;;;;;;;3.63;1.20;;;;;;;13.07;100.00;92377.41;5068674;28;20048;-80
2023/11/06 01:23:21;;;;;;;3.80;0.90;;;;;;;13.10;100.00;92387.22;5072422;28;20048;-81
2023/11/06 01:25:49;;;;;;;3.72;1.33;;;;;;;13.08;100.00;92388.50;5070951;28;20053;-81
2023/11/06 01:28:15;;;;;;;4.00;1.60;;;;;;;12.97;100.00;92382.50;5070782;28;20076;-80
2023/11/06 01:30:43;;;;;;;3.75;1.20;;;;;;;12.73;100.00;92353.66;5068948;28;20396;-81
2023/11/06 01:33:09;;;;;;;2.30;0.95;;;;;;;12.65;100.00;92358.22;5070577;28;20048;-81
2023/11/06 01:35:37;;;;;;;3.75;1.15;;;;;;;12.73;100.00;92369.88;5065070;28;20051;-81
2023/11/06 01:38:05;;;;;;;3.35;1.58;;;;;;;12.91;100.00;92401.50;5068401;28;20048;-80
2023/11/06 01:40:32;;;;;;;4.28;1.60;;;;;;;12.86;100.00;92401.47;5073946;28;20492;-81
2023/11/06 01:43:05;;;;;;;3.83;1.10;;;;;;;12.83;100.00;92398.31;5069031;28;20051;-81
2023/11/06 01:45:32;;;;;;;3.00;0.70;;;;;;;12.79;100.00;92397.28;5066287;28;20049;-80
2023/11/06 01:48:00;;;;;;;5.68;1.25;;;;;;;12.69;100.00;92384.28;5066927;28;20044;-80
2023/11/06 01:50:28;;;;;;;2.78;0.50;;;;;;;12.81;100.00;92404.75;5066934;28;20151;-80
2023/11/06 01:52:55;;;;;;;5.25;0.98;;;;;;;12.80;100.00;92403.19;5066455;28;20531;-81
2023/11/06 01:55:27;;;;;;;2.63;0.70;;;;;;;12.74;100.00;92406.75;5068227;28;20041;-80
2023/11/06 01:57:54;;;;;;;3.67;0.60;;;;;;;12.88;100.00;92420.03;5067739;28;20098;-81
2023/11/06 02:00:23;;;;;;;3.33;0.70;;;;;;;12.67;100.00;92381.94;5070409;28;20141;-80
2023/11/06 02:02:50;;;;;;;3.55;0.68;;;;;;;12.74;100.00;92391.28;5069156;28;20534;-80
2023/11/06 02:05:18;;;;;;;2.97;0.85;;;;;;;12.70;100.00;92383.25;5071808;28;20059;-80
2023/11/06 02:07:45;;;;;;;3.90;0.65;;;;;;;12.88;100.00;92410.50;5067907;28;20056;-81
2023/11/06 02:10:12;;;;;;;2.45;0.80;;;;;;;12.78;100.00;92420.72;5067433;28;20094;-77
2023/11/06 02:12:40;;;;;;;6.07;2.17;;;;;;;12.53;100.00;92416.81;5071906;28;20052;-77
2023/11/06 02:15:13;;;;;;;5.95;2.38;;;;;;;12.58;100.00;92421.28;5066798;28;20060;-76
2023/11/06 02:17:41;;;;;;;6.25;1.90;;;;;;;12.39;100.00;92406.91;5074843;28;20060;-76
2023/11/06 02:20:09;;;;;;;4.45;1.65;;;;;;;12.34;100.00;92426.66;5064059;28;20106;-76
2023/11/06 02:22:41;;;;;;;5.78;1.88;;;;;;;12.46;100.00;92444.56;5067918;28;20053;-76
2023/11/06 02:25:09;;;;;;;6.13;2.00;;;;;;;12.38;100.00;92456.06;5069939;28;20063;-76
2023/11/06 02:27:37;;;;;;;5.72;2.13;;;;;;;12.06;100.00;92442.03;5067026;28;20056;-76
2023/11/06 02:30:04;;;;;;;6.25;2.00;;;;;;;12.21;100.00;92467.19;5067611;28;20864;-79
2023/11/06 02:32:31;;;;;;;6.38;2.70;;;;;;;12.22;100.00;92478.28;5067640;28;20052;-78
2023/11/06 02:34:58;;;;;;;7.57;2.72;;;;;;;12.24;100.00;92476.25;5068740;28;20052;-78
2023/11/06 02:37:25;;;;;;;6.30;2.40;;;;;;;12.21;100.00;92474.91;5069031;28;20048;-78
2023/11/06 02:39:52;;;;;;;4.55;1.95;;;;;;;12.19;100.00;92484.69;5065139;28;20044;-78
2023/11/06 02:42:21;;;;;;;6.20;2.75;;;;;;;12.26;100.00;92487.88;5069119;28;20052;-77
2023/11/06 02:44:48;;;;;;;5.90;2.33;;;;;;;12.23;100.00;92501.19;5071798;28;20048;-77
2023/11/06 02:47:15;;;;;;;4.50;1.63;;;;;;;12.11;100.00;92496.16;5068195;28;20489;-78
2023/11/06 02:49:41;;;;;;;4.28;1.92;;;;;;;12.19;100.00;92509.63;5074125;28;20048;-79
2023/11/06 02:52:08;;;;;;;3.97;1.05;;;;;;;12.17;100.00;92497.00;5067515;28;20485;-80
2023/11/06 02:54:35;;;;;;;3.67;0.93;;;;;;;12.25;100.00;92508.69;5072011;28;20052;-80
2023/11/06 02:57:04;;;;;;;3.30;0.85;;;;;;;12.22;100.00;92504.78;5068314;28;20060;-80
2023/11/06 02:59:33;;;;;;;2.95;0.90;;;;;;;12.16;100.00;92506.53;5067230;28;20144;-80
2023/11/06 03:02:01;;;;;;;4.40;1.20;;;;;;;12.13;100.00;92509.56;5071300;28;20524;-80
2023/11/06 03:04:28;;;;;;;2.97;1.10;;;;;;;12.11;100.00;92513.41;5067144;28;20552;-77
2023/11/06 03:06:55;;;;;;;4.43;0.98;;;;;;;12.02;100.00;92511.19;5066897;28;20049;-79
2023/11/06 03:09:23;;;;;;;3.10;1.42;;;;;;;11.87;100.00;92498.91;5070676;28;20041;-78
2023/11/06 03:11:49;;;;;;;3.30;1.20;;;;;;;11.71;100.00;92491.97;5067900;28;20079;-77
2023/11/06 03:14:17;;;;;;;4.50;1.13;;;;;;;11.85;100.00;92520.72;5066805;28;20048;-77
2023/11/06 03:16:45;;;;;;;4.78;1.15;;;;;;;11.71;100.00;92504.81;5067166;28;20052;-77
2023/11/06 03:19:12;;;;;;;2.92;1.17;;;;;;;11.60;100.00;92498.72;5066776;28;20052;-77
2023/11/06 03:21:39;;;;;;;7.38;1.17;;;;;;;11.57;100.00;92492.25;5068524;28;20048;-77
2023/11/06 03:24:07;;;;;;;5.75;0.77;;;;;;;11.72;100.00;92527.72;5070795;28;20144;-78
2023/11/06 03:26:34;;;;;;;2.22;0.93;;;;;;;11.72;100.00;92529.53;5068116;28;20428;-78
2023/11/06 03:29:01;;;;;;;4.60;0.95;;;;;;;11.68;100.00;92525.84;5066275;28;20059;-77
2023/11/06 03:31:28;;;;;;;4.80;0.75;;;;;;;11.60;100.00;92532.94;5069114;28;20056;-78
2023/11/06 03:33:57;;;;;;;3.92;0.80;;;;;;;11.48;100.00;92525.28;5066546;28;20409;-77
2023/11/06 03:36:24;;;;;;;3.28;1.20;;;;;;;11.38;100.00;92517.41;5066699;28;20143;-77
2023/11/06 03:38:50;;;;;;;3.42;0.80;;;;;;;11.42;100.00;92541.66;5063657;28;20062;-77
2023/11/06 03:41:18;;;;;;;5.10;1.02;;;;;;;11.48;100.00;92550.25;5069616;28;20053;-77
2023/11/06 03:43:48;;;;;;;4.25;0.80;;;;;;;11.47;100.00;92549.44;5068531;28;20059;-78
2023/11/06 03:46:15;;;;;;;3.45;0.82;;;;;;;11.35;100.00;92535.88;5066818;28;20389;-77
2023/11/06 03:48:42;;;;;;;3.00;0.80;;;;;;;11.53;100.00;92552.13;5067104;28;20049;-78
2023/11/06 03:51:11;;;;;;;3.35;0.70;;;;;;;11.53;100.00;92559.81;5065166;28;20040;-78
2023/11/06 03:53:38;;;;;;;7.82;3.60;;;;;;;11.52;100.00;92558.28;5066192;28;20043;-78
2023/11/06 03:56:05;;;;;;;7.72;3.28;;;;;;;11.49;100.00;92580.09;5067457;28;20504;-78
2023/11/06 03:58:32;;;;;;;8.05;4.18;;;;;;;11.46;100.00;92583.09;5072433;28;20051;-78
2023/11/06 04:00:59;;;;;;;8.43;3.70;;;;;;;11.44;100.00;92595.44;5071658;28;20048;-77
2023/11/06 04:03:26;;;;;;;9.88;3.83;;;;;;;11.35;100.00;92585.50;5070962;28;20059;-77
2023/11/06 04:05:53;;;;;;;19.17;8.32;;;;;;;11.34;100.00;92604.50;5070804;28;20477;-78
2023/11/06 04:08:21;;;;;;;21.58;9.50;;;;;;;11.36;100.00;92607.63;5071150;28;20052;-78
2023/11/06 04:10:48;;;;;;;9.65;3.67;;;;;;;11.26;100.00;92601.53;5070566;28;20060;-78
2023/11/06 04:13:15;;;;;;;7.22;2.30;;;;;;;11.30;100.00;92613.69;5071184;28;20386;-78
2023/11/06 04:15:42;;;;;;;7.45;2.17;;;;;;;11.31;100.00;92620.41;5072704;28;20825;-78
2023/11/06 04:18:09;;;;;;;9.82;2.47;;;;;;;11.00;100.00;92583.03;5070550;28;20075;-78
2023/11/06 04:20:36;;;;;;;7.72;2.67;;;;;;;11.23;100.00;92625.88;5071103;28;20044;-78
2023/11/06 04:23:03;;;;;;;6.13;2.65;;;;;;;11.03;100.00;92600.56;5070165;28;20048;-79
2023/11/06 04:25:31;;;;;;;7.25;2.35;;;;;;;11.12;100.00;92624.13;5069609;28;20053;-79
2023/11/06 04:27:59;;;;;;;5.32;2.17;;;;;;;10.97;100.00;92625.38;5074216;28;20048;-78
2023/11/06 04:30:26;;;;;;;5.78;2.50;;;;;;;10.93;100.00;92637.91;5069942;28;20045;-79
2023/11/06 04:32:53;;;;;;;6.60;2.30;;;;;;;10.78;100.00;92625.53;5067521;28;20056;-79
2023/11/06 04:35:19;;;;;;;4.57;2.33;;;;;;;10.80;100.00;92644.06;5071073;28;20049;-79
2023/11/06 04:37:47;;;;;;;4.18;2.05;;;;;;;10.78;100.00;92640.16;5073870;28;20060;-79
2023/11/06 04:40:28;;;;;;;5.00;2.55;;;;;;;10.74;100.00;92644.94;5069272;28;20045;-78
2023/11/06 04:42:56;;;;;;;5.60;2.45;;;;;;;10.71;100.00;92644.63;5074858;28;20070;-78
2023/11/06 04:45:23;;;;;;;6.72;2.45;;;;;;;10.64;100.00;92647.31;5069741;28;20045;-78
2023/11/06 04:47:50;;;;;;;7.85;2.63;;;;;;;10.59;100.00;92658.25;5071350;28;20044;-78
2023/11/06 04:50:16;;;;;;;7.65;2.65;;;;;;;10.58;100.00;92661.81;5072172;28;20447;-78
2023/11/06 04:52:47;;;;;;;3.80;2.00;;;;;;;10.55;100.00;92664.81;5072650;28;20201;-78
2023/11/06 04:55:37;;;;;;;6.47;2.10;;;;;;;9.13;100.00;92479.66;5072985;28;20052;-78
2023/11/06 04:58:05;;;;;;;4.18;1.95;;;;;;;10.41;100.00;92667.59;5066475;28;20135;-78
2023/11/06 05:00:32;;;;;;;5.65;2.40;;;;;;;10.39;100.00;92664.47;5071535;28;20127;-78
2023/11/06 05:02:59;;;;;;;6.25;2.55;;;;;;;10.35;100.00;92655.63;5068576;28;20052;-77
2023/11/06 05:05:26;;;;;;;5.47;2.28;;;;;;;10.46;100.00;92684.91;5067990;28;20044;-77
2023/11/06 05:07:53;;;;;;;4.72;2.05;;;;;;;10.51;100.00;92699.69;5069277;28;20044;-76
2023/11/06 05:10:20;;;;;;;4.53;2.25;;;;;;;10.50;100.00;92698.09;5068993;28;20063;-77
2023/11/06 05:12:47;;;;;;;7.45;2.25;;;;;;;10.40;100.00;92696.84;5068575;28;20079;-79
2023/11/06 05:15:15;;;;;;;4.88;1.52;;;;;;;10.39;100.00;92715.81;5068972;28;20048;-78
2023/11/06 05:17:42;;;;;;;3.17;1.30;;;;;;;10.35;100.00;92722.38;5069176;28;20061;-78
2023/11/06 05:20:12;;;;;;;3.83;1.48;;;;;;;10.42;100.00;92727.44;5064830;28;20044;-78
2023/11/06 05:22:39;;;;;;;6.20;1.92;;;;;;;10.41;100.00;92736.13;5068631;28;20052;-77
2023/11/06 05:25:08;;;;;;;4.30;1.25;;;;;;;10.38;100.00;92734.78;5066906;28;20489;-78
2023/11/06 05:27:34;;;;;;;3.85;1.40;;;;;;;10.47;100.00;92737.84;5069129;28;20147;-77
2023/11/06 05:30:01;;;;;;;6.82;1.30;;;;;;;10.49;100.00;92733.28;5071672;28;20060;-77
2023/11/06 05:32:29;;;;;;;6.93;1.17;;;;;;;10.46;100.00;92735.50;5067639;28;20040;-79
2023/11/06 05:34:57;;;;;;;6.55;1.33;;;;;;;10.33;100.00;92711.56;5065349;28;20053;-78
2023/11/06 05:37:26;;;;;;;4.32;1.10;;;;;;;10.43;100.00;92732.34;5065789;28;20056;-78
2023/11/06 05:39:53;;;;;;;4.22;1.80;;;;;;;10.49;100.00;92743.53;5064757;28;20052;-79
2023/11/06 05:42:20;;;;;;;6.60;1.80;;;;;;;10.48;100.00;92744.56;5067471;28;20838;-78
2023/11/06 05:44:48;;;;;;;4.60;1.80;;;;;;;10.42;100.00;92753.88;5068303;28;20044;-79
2023/11/06 05:50:02;;;;;;;8.75;3.08;;;;;;;10.45;100.00;92765.53;5065155;28;20051;-78
2023/11/06 05:52:29;;;;;;;5.25;2.42;;;;;;;10.46;100.00;92766.31;5068207;28;20175;-78
2023/11/06 05:54:56;;;;;;;6.63;2.83;;;;;;;10.43;100.00;92768.31;5071616;28;20056;-78
2023/11/06 05:57:23;;;;;;;9.98;3.63;;;;;;;10.45;100.00;92770.66;5068890;28;20045;-78
2023/11/06 05:59:50;;;;;;;8.00;3.85;;;;;;;10.54;100.00;92779.63;5071238;28;20048;-78
2023/11/06 06:02:17;;;;;;;7.40;2.85;;;;;;;10.44;100.00;92758.81;5067043;28;20795;-78
2023/11/06 06:04:44;;;;;;;8.15;3.22;;;;;;;10.59;100.00;92778.94;5067288;28;20051;-78
2023/11/06 06:07:12;;;;;;;10.63;5.07;;;;;;;10.69;100.00;92784.34;5068338;28;20048;-78
2023/11/06 06:09:41;;;;;;;13.93;4.97;;;;;;;10.76;100.00;92793.72;5065625;28;20050;-78
2023/11/06 06:12:11;;;;;;;9.85;4.47;;;;;;;10.58;100.00;92772.25;5067590;28;20043;-79
2023/11/06 06:14:38;;;;;;;9.18;4.03;;;;;;;10.81;100.00;92792.09;5065890;28;20076;-80
2023/11/06 06:17:05;;;;;;;8.85;3.22;;;;;;;10.88;100.00;92797.09;5071086;28;20048;-79
2023/11/06 06:19:32;;;;;;;10.15;3.25;;;;;;;10.89;100.00;92782.47;5067197;28;20040;-79
2023/11/06 06:21:59;;;;;;;6.63;2.58;;;;;;;11.08;100.00;92791.63;5067273;28;20485;-79
2023/11/06 06:24:27;;;;;;;5.72;1.70;;;;;;;11.15;100.00;92809.53;5067299;28;20055;-79
2023/11/06 06:26:55;;;;;;;7.18;2.05;;;;;;;11.26;100.00;92822.63;5070298;28;20086;-79
2023/11/06 06:29:22;;;;;;;3.10;1.20;;;;;;;11.37;100.00;92806.41;5071772;28;20141;-79
2023/11/06 06:31:53;;;;;;;3.83;0.98;;;;;;;11.29;100.00;92786.19;5069894;28;20864;-79
2023/11/06 06:34:20;;;;;;;4.85;1.25;;;;;;;11.68;100.00;92819.94;5064898;28;20052;-79
2023/11/06 06:36:47;;;;;;;3.53;1.30;;;;;;;11.73;100.00;92804.59;5067590;28;20043;-79
2023/11/06 06:39:13;;;;;;;4.70;1.20;;;;;;;11.89;100.00;92810.03;5070136;28;20048;-79
2023/11/06 06:41:42;;;;;;;4.22;1.00;;;;;;;12.19;100.00;92834.06;5070137;28;20055;-78
2023/11/06 06:44:09;;;;;;;4.10;0.77;;;;;;;12.22;100.00;92828.47;5069785;28;20036;-79
2023/11/06 06:46:35;;;;;;;3.92;0.80;;;;;;;12.56;100.00;92838.88;5067372;28;20048;-79
2023/11/06 06:49:02;;;;;;;4.18;0.93;;;;;;;12.73;100.00;92841.47;5066598;28;20055;-79
2023/11/06 06:51:29;;;;;;;3.05;0.73;;;;;;;12.87;100.00;92836.78;5071012;28;20847;-78
2023/11/06 06:53:57;;;;;;;4.55;0.80;;;;;;;13.05;99.44;92848.69;5065734;28;20049;-79
2023/11/06 06:56:24;;;;;;;4.32;1.23;;;;;;;13.28;99.13;92849.56;5062179;28;20075;-79
2023/11/06 06:58:52;;;;;;;4.20;0.75;;;;;;;13.26;96.22;92830.16;5063495;28;20048;-79
2023/11/06 07:01:19;;;;;;;5.05;1.27;;;;;;;13.54;93.32;92865.44;5069259;28;20497;-78
2023/11/06 07:03:46;;;;;;;2.95;0.85;;;;;;;13.72;93.30;92853.31;5063657;28;20052;-79
2023/11/06 07:06:14;;;;;;;3.55;0.93;;;;;;;13.78;91.59;92849.00;5061139;28;20060;-79
2023/11/06 07:08:41;;;;;;;4.53;1.45;;;;;;;14.01;89.05;92855.72;5059635;28;20048;-79
2023/11/06 07:11:08;;;;;;;3.38;0.80;;;;;;;14.11;85.65;92860.22;5063883;28;20051;-79
2023/11/06 07:13:36;;;;;;;5.90;0.70;;;;;;;14.40;87.74;92868.59;5060769;28;20044;-79
2023/11/06 07:16:05;;;;;;;5.65;0.88;;;;;;;14.06;87.04;92803.38;5066838;28;20048;-79
2023/11/06 07:18:32;;;;;;;4.05;0.65;;;;;;;14.78;86.59;92870.56;5066553;28;20059;-79
2023/11/06 07:20:59;;;;;;;4.78;1.05;;;;;;;14.90;85.94;92867.84;5064979;28;20420;-80
2023/11/06 07:23:26;;;;;;;4.55;0.82;;;;;;;15.01;81.41;92879.84;5069391;28;20060;-79
2023/11/06 07:25:53;;;;;;;7.20;2.13;;;;;;;15.15;80.92;92874.25;5066396;28;20386;-79
2023/11/06 07:28:20;;;;;;;5.88;1.05;;;;;;;15.30;82.50;92869.22;5060758;28;20044;-79
2023/11/06 07:30:46;;;;;;;3.85;0.75;;;;;;;15.41;79.76;92877.81;5068291;28;20041;-79
2023/11/06 07:33:15;;;;;;;4.82;0.82;;;;;;;15.56;80.04;92884.91;5064117;28;20078;-79
2023/11/06 07:35:42;;;;;;;2.95;0.68;;;;;;;15.60;76.63;92874.84;5071273;28;20049;-79
2023/11/06 07:38:09;;;;;;;4.05;1.15;;;;;;;15.76;76.69;92886.09;5064367;28;20049;-79
2023/11/06 07:40:36;;;;;;;2.85;0.70;;;;;;;15.88;76.40;92889.25;5064144;28;20049;-79
2023/11/06 07:43:02;;;;;;;6.20;0.90;;;;;;;16.05;74.34;92898.72;5066600;28;20045;-79
2023/11/06 07:45:29;;;;;;;5.80;0.93;;;;;;;16.20;74.58;92903.19;5065599;28;20045;-79
2023/11/06 07:48:01;;;;;;;5.25;0.80;;;;;;;16.31;73.93;92898.84;5064391;28;20052;-79
2023/11/06 07:50:30;;;;;;;3.38;0.68;;;;;;;16.40;72.49;92909.50;5065388;28;20048;-79
2023/11/06 07:52:56;;;;;;;5.65;0.95;;;;;;;16.53;71.29;92905.66;5064929;28;20501;-80
2023/11/06 07:55:23;;;;;;;7.88;0.88;;;;;;;16.66;71.04;92914.78;5065379;28;20519;-80
2023/11/06 07:57:50;;;;;;;6.32;0.82;;;;;;;16.66;70.73;92902.59;5066749;28;20063;-80
2023/11/06 08:00:17;;;;;;;4.80;1.02;;;;;;;16.76;70.48;92906.25;5067711;28;20127;-81
2023/11/06 08:02:44;;;;;;;4.75;1.33;;;;;;;16.82;70.53;92913.78;5065812;28;20036;-81
2023/11/06 08:05:11;;;;;;;3.42;0.85;;;;;;;16.96;71.14;92915.91;5065255;28;20044;-81
2023/11/06 08:07:40;;;;;;;3.83;0.90;;;;;;;16.97;70.45;92896.69;5072041;28;20037;-80
2023/11/06 08:10:08;;;;;;;4.43;1.33;;;;;;;17.06;69.06;92894.41;5065836;28;20109;-80
2023/11/06 08:12:35;;;;;;;5.20;1.10;;;;;;;17.28;68.64;92906.38;5068708;28;20053;-80
2023/11/06 08:15:03;;;;;;;3.22;0.80;;;;;;;17.41;66.57;92907.69;5066671;28;20048;-80
2023/11/06 08:17:31;;;;;;;7.68;1.77;;;;;;;17.35;67.09;92892.09;5067924;28;20064;-81
2023/11/06 08:19:57;;;;;;;4.18;1.70;;;;;;;17.35;63.57;92912.88;5065522;28;20046;-81
2023/11/06 08:22:24;;;;;;;5.43;1.20;;;;;;;17.51;67.36;92910.28;5069338;28;20048;-80
2023/11/06 08:24:53;;;;;;;6.53;1.33;;;;;;;17.40;64.21;92916.50;5058470;28;20045;-80
2023/11/06 08:27:19;;;;;;;5.28;1.20;;;;;;;17.39;65.38;92914.97;5060667;28;20528;-80
2023/11/06 08:29:46;;;;;;;5.50;1.42;;;;;;;17.29;65.85;92890.53;5065846;28;20193;-80
2023/11/06 08:32:12;;;;;;;5.47;1.05;;;;;;;17.61;63.89;92914.69;5070258;28;20373;-81
2023/11/06 08:34:41;;;;;;;4.28;0.70;;;;;;;17.66;64.93;92916.50;5064601;28;20051;-80
2023/11/06 08:37:07;;;;;;;3.85;1.00;;;;;;;17.56;61.83;92902.50;5065105;28;20077;-81
2023/11/06 08:39:34;;;;;;;4.68;1.00;;;;;;;17.63;62.66;92926.38;5065560;28;20519;-81
2023/11/06 08:42:03;;;;;;;3.50;1.15;;;;;;;17.75;65.34;92922.72;5057796;28;20044;-81
2023/11/06 08:44:31;;;;;;;5.63;1.10;;;;;;;17.90;64.61;92930.50;5063828;28;20124;-81
2023/11/06 08:46:58;;;;;;;5.03;1.17;;;;;;;18.08;65.13;92925.84;5067316;28;20040;-82
2023/11/06 08:49:25;;;;;;;4.50;1.15;;;;;;;18.20;62.49;92937.75;5068373;28;20047;-83
2023/11/06 08:51:52;;;;;;;4.13;0.90;;;;;;;18.23;61.15;92925.00;5066212;28;20044;-81
2023/11/06 08:54:19;;;;;;;5.55;1.33;;;;;;;18.43;63.04;92939.78;5066463;28;20044;-81
2023/11/06 08:56:46;;;;;;;4.93;0.90;;;;;;;18.54;61.00;92939.75;5065005;28;20045;-81
2023/11/06 08:59:14;;;;;;;4.47;0.55;;;;;;;18.64;60.17;92938.91;5063438;28;20067;-80
2023/11/06 09:01:41;;;;;;;3.92;0.43;;;;;;;18.66;59.92;92942.81;5062956;28;20044;-80
2023/11/06 09:04:10;;;;;;;6.90;0.90;;;;;;;18.81;59.22;92951.63;5064793;28;20041;-80
2023/11/06 09:06:40;;;;;;;4.72;0.82;;;;;;;18.88;59.02;92949.50;5063394;28;20048;-80
2023/11/06 09:09:08;;;;;;;4.57;1.05;;;;;;;18.94;59.02;92952.84;5063552;28;20130;-81
2023/11/06 09:11:35;;;;;;;4.15;0.75;;;;;;;18.91;59.89;92935.94;5064200;28;20043;-80
2023/11/06 09:14:03;;;;;;;4.70;1.20;;;;;;;18.83;59.76;92913.06;5062298;28;20055;-79
2023/11/06 09:16:34;;;;;;;4.68;0.68;;;;;;;19.16;59.42;92962.16;5062144;28;20040;-79
2023/11/06 09:19:01;;;;;;;3.63;0.77;;;;;;;19.22;57.56;92963.66;5063724;28;20044;-79
2023/11/06 09:21:28;;;;;;;5.05;0.95;;;;;;;19.27;58.08;92962.84;5063420;28;20059;-79
2023/11/06 09:23:55;;;;;;;3.63;0.93;;;;;;;19.25;57.02;92950.09;5063550;28;20550;-80
2023/11/06 09:26:22;;;;;;;3.30;1.08;;;;;;;19.31;56.00;92958.66;5063481;28;20048;-80
2023/11/06 09:28:49;;;;;;;7.78;1.23;;;;;;;19.36;56.66;92956.03;5062839;28;20057;-80
2023/11/06 09:31:20;;;;;;;5.35;0.90;;;;;;;19.44;58.05;92959.91;5064724;28;20079;-80
2023/11/06 09:33:48;;;;;;;5.00;0.80;;;;;;;19.56;56.89;92962.13;5063499;28;20521;-81
2023/11/06 09:36:15;;;;;;;8.10;2.13;;;;;;;19.47;57.99;92944.50;5063834;28;20074;-81
2023/11/06 09:38:42;;;;;;;7.60;1.10;;;;;;;19.54;57.38;92957.22;5063817;28;20047;-80
2023/11/06 09:41:11;;;;;;;5.10;0.80;;;;;;;19.62;56.37;92954.03;5067188;28;20052;-80
2023/11/06 09:43:39;;;;;;;4.20;1.80;;;;;;;19.60;57.28;92947.53;5067728;28;20098;-79
2023/11/06 09:46:09;;;;;;;4.32;2.25;;;;;;;19.66;56.44;92962.06;5066485;28;20044;-76
2023/11/06 09:48:37;;;;;;;7.38;1.38;;;;;;;19.77;57.20;92947.91;5065903;28;20417;-73
2023/11/06 09:51:11;;;;;;;4.18;1.15;;;;;;;19.63;57.10;92926.91;5066933;28;20051;-79
2023/11/06 09:53:39;;;;;;;5.18;0.80;;;;;;;19.81;56.29;92948.13;5066574;28;20113;-77
2023/11/06 09:56:09;;;;;;;5.15;1.15;;;;;;;19.82;54.79;92949.72;5066806;28;20066;-79
2023/11/06 09:58:37;;;;;;;4.22;0.77;;;;;;;19.85;55.41;92943.16;5068052;28;20052;-79
2023/11/06 10:01:04;;;;;;;3.92;0.85;;;;;;;19.84;55.18;92936.38;5066173;28;20045;-79
2023/11/06 10:03:31;;;;;;;2.65;0.63;;;;;;;19.84;55.13;92934.56;5065672;28;20501;-77
2023/11/06 10:05:58;;;;;;;5.28;1.05;;;;;;;19.81;56.37;92916.09;5067072;28;20040;-78
2023/11/06 10:08:31;;;;;;;3.53;0.85;;;;;;;19.84;56.64;92907.72;5065051;28;20534;-85
2023/11/06 10:11:00;;;;;;;9.85;2.20;;;;;;;20.05;56.68;92923.19;5066459;28;20055;-84
2023/11/06 10:13:27;;;;;;;6.07;1.02;;;;;;;19.44;54.26;92827.81;5065948;28;20049;-84
2023/11/06 10:15:55;;;;;;;3.55;0.65;;;;;;;19.96;54.30;92913.38;5069277;28;20049;-83
2023/11/06 10:18:25;;;;;;;2.88;0.60;;;;;;;19.63;54.71;92861.03;5068933;28;20048;-84
2023/11/06 10:20:55;;;;;;;7.13;0.93;;;;;;;19.01;53.58;92776.34;5066556;28;20052;-84
2023/11/06 10:23:26;;;;;;;5.22;1.30;;;;;;;19.95;52.33;92914.38;5066101;28;20051;-84
2023/11/06 10:25:55;;;;;;;4.45;0.90;;;;;;;20.02;53.52;92919.31;5069574;28;20408;-84
2023/11/06 10:28:23;;;;;;;5.70;0.65;;;;;;;20.10;53.32;92915.34;5067514;28;20076;-85
2023/11/06 10:30:53;;;;;;;3.35;1.08;;;;;;;20.11;54.10;92896.03;5065585;28;20098;-84
2023/11/06 10:33:21;;;;;;;7.05;1.55;;;;;;;20.29;53.00;92918.78;5061912;28;20137;-85
2023/11/06 10:35:48;;;;;;;4.40;0.73;;;;;;;20.20;52.46;92910.03;5063699;28;20048;-84
2023/11/06 10:38:29;;;;;;;5.50;0.93;;;;;;;20.10;53.68;92889.25;5067084;28;20121;-85
2023/11/06 10:40:59;;;;;;;6.15;0.80;;;;;;;20.24;53.90;92900.59;5067508;28;20105;-85
2023/11/06 10:43:26;;;;;;;3.13;0.57;;;;;;;20.43;53.17;92912.91;5067890;28;20378;-84
2023/11/06 10:45:53;;;;;;;3.58;0.77;;;;;;;20.47;51.20;92900.06;5066153;28;20044;-85
2023/11/06 10:48:31;;;;;;;4.95;1.05;;;;;;;20.42;51.94;92895.69;5066446;28;20444;-85
2023/11/06 10:50:58;;;;;;;7.07;1.42;;;;;;;20.60;52.52;92902.00;5061391;28;20051;-84
2023/11/06 10:53:26;;;;;;;6.65;0.75;;;;;;;20.56;51.13;92907.00;5063014;28;20048;-83
2023/11/06 10:55:54;;;;;;;13.23;2.42;;;;;;;20.32;51.30;92875.72;5068033;28;20067;-83
2023/11/06 10:58:24;;;;;;;5.10;0.70;;;;;;;20.56;52.35;92907.00;5065211;28;20055;-84
2023/11/06 11:00:53;;;;;;;2.90;0.70;;;;;;;20.20;51.33;92857.06;5063232;28;20507;-83
2023/11/06 11:03:21;;;;;;;4.68;0.90;;;;;;;20.46;51.70;92894.06;5064706;28;20428;-82
2023/11/06 11:05:49;;;;;;;6.57;1.02;;;;;;;20.65;52.02;92912.38;5062295;28;20044;-84
2023/11/06 11:08:19;;;;;;;3.55;1.00;;;;;;;20.53;51.83;92915.41;5068043;28;20052;-83
2023/11/06 11:10:46;;;;;;;4.80;1.65;;;;;;;20.56;52.59;92907.00;5066651;28;20041;-83
2023/11/06 11:13:15;;;;;;;9.15;3.80;;;;;;;20.60;50.02;92904.59;5066972;28;20056;-83
2023/11/06 11:15:43;;;;;;;9.02;3.33;;;;;;;20.61;49.50;92916.63;5063351;28;20059;-85
2023/11/06 11:18:13;;;;;;;7.75;1.55;;;;;;;20.75;49.87;92919.31;5068257;28;20063;-84
2023/11/06 11:20:53;;;;;;;4.63;0.90;;;;;;;20.46;45.46;92922.75;5064216;28;20052;-83
2023/11/06 11:23:36;;;;;;;4.85;0.95;;;;;;;19.69;45.35;92809.63;5066007;28;20501;-83
2023/11/06 11:26:04;;;;;;;7.03;2.03;;;;;;;20.43;50.00;92902.47;5067578;28;20143;-83
2023/11/06 11:28:54;;;;;;;4.95;1.45;;;;;;;20.62;48.49;92912.16;5067751;28;20500;-82
2023/11/06 11:31:39;;;;;;;3.80;1.13;;;;;;;20.82;49.40;92921.56;5062279;28;20137;-82
2023/11/06 11:34:06;;;;;;;2.80;0.55;;;;;;;20.67;49.35;92910.28;5061998;28;20549;-83
2023/11/06 11:36:34;;;;;;;5.00;0.90;;;;;;;20.54;49.92;92883.03;5069110;28;20049;-82